sensor_id;sensor_type;location;lat;lon;timestamp;pressure;altitude;pressure_sealevel;temperature;humidity
41202;BME280;26936;50.524;8.684;2022-12-07T00:01:14;99425.59;;;3.34;100.00
41202;BME280;26936;50.524;8.684;2022-12-07T00:03:41;99418.44;;;3.33;100.00
41202;BME280;26936;50.524;8.684;2022-12-07T00:06:08;99414.47;;;3.31;100.00
41202;BME280;26936;50.524;8.684;2022-12-07T00:08:34;99409.69;;;3.31;100.00
41202;BME280;26936;50.524;8.684;2022-12-07T00:11:11;99409.69;;;3.35;100.00
41202;BME280;26936;50.524;8.684;2022-12-07T00:13:37;99410.09;;;3.33;100.00
41202;BME280;26936;50.524;8.684;2022-12-07T00:16:04;99411.69;;;3.34;100.00
41202;BME280;26936;50.524;8.684;2022-12-07T00:18:30;99409.31;;;3.33;100.00
41202;BME280;26936;50.524;8.684;2022-12-07T00:21:03;99412.06;;;3.36;100.00
41202;BME280;26936;50.524;8.684;2022-12-07T00:23:29;99414.84;;;3.36;100.00
41202;BME280;26936;50.524;8.684;2022-12-07T00:25:55;99411.28;;;3.39;100.00
41202;BME280;26936;50.524;8.684;2022-12-07T00:28:20;99401.31;;;3.42;100.00
41202;BME280;26936;50.524;8.684;2022-12-07T00:30:45;99411.22;;;3.46;100.00
41202;BME280;26936;50.524;8.684;2022-12-07T00:33:11;99404.50;;;3.40;100.00
41202;BME280;26936;50.524;8.684;2022-12-07T00:35:36;99401.69;;;3.44;100.00
41202;BME280;26936;50.524;8.684;2022-12-07T00:38:01;99404.91;;;3.39;100.00
41202;BME280;26936;50.524;8.684;2022-12-07T00:40:26;99404.88;;;3.46;100.00
41202;BME280;26936;50.524;8.684;2022-12-07T00:42:52;99398.13;;;3.40;100.00
41202;BME280;26936;50.524;8.684;2022-12-07T00:45:17;99404.91;;;3.42;100.00
41202;BME280;26936;50.524;8.684;2022-12-07T00:47:42;99388.19;;;3.46;100.00
41202;BME280;26936;50.524;8.684;2022-12-07T00:50:08;99384.59;;;3.42;100.00
41202;BME280;26936;50.524;8.684;2022-12-07T00:52:33;99382.22;;;3.44;100.00
41202;BME280;26936;50.524;8.684;2022-12-07T00:54:58;99382.63;;;3.42;100.00
41202;BME280;26936;50.524;8.684;2022-12-07T00:57:24;99381.00;;;3.41;100.00
41202;BME280;26936;50.524;8.684;2022-12-07T00:59:49;99382.63;;;3.42;100.00
41202;BME280;26936;50.524;8.684;2022-12-07T01:02:14;99376.66;;;3.40;100.00
41202;BME280;26936;50.524;8.684;2022-12-07T01:04:39;99377.06;;;3.39;100.00
41202;BME280;26936;50.524;8.684;2022-12-07T01:07:05;99385.00;;;3.40;100.00
41202;BME280;26936;50.524;8.684;2022-12-07T01:09:30;99379.81;;;3.46;100.00
41202;BME280;26936;50.524;8.684;2022-12-07T01:11:55;99377.81;;;3.46;100.00
41202;BME280;26936;50.524;8.684;2022-12-07T01:14:21;99385.00;;;3.40;100.00
41202;BME280;26936;50.524;8.684;2022-12-07T01:16:46;99388.19;;;3.39;100.00
41202;BME280;26936;50.524;8.684;2022-12-07T01:19:11;99386.97;;;3.47;100.00
41202;BME280;26936;50.524;8.684;2022-12-07T01:21:37;99388.94;;;3.46;100.00
41202;BME280;26936;50.524;8.684;2022-12-07T01:24:05;99377.06;;;3.42;100.00
41202;BME280;26936;50.524;8.684;2022-12-07T01:26:31;99376.56;;;3.54;100.00
41202;BME280;26936;50.524;8.684;2022-12-07T01:28:56;99384.56;;;3.52;100.00
41202;BME280;26936;50.524;8.684;2022-12-07T01:31:25;99375.00;;;3.50;100.00
41202;BME280;26936;50.524;8.684;2022-12-07T01:33:52;99378.19;;;3.48;100.00
41202;BME280;26936;50.524;8.684;2022-12-07T01:36:38;99380.59;;;3.46;100.00
41202;BME280;26936;50.524;8.684;2022-12-07T01:39:06;99379.38;;;3.51;100.00
41202;BME280;26936;50.524;8.684;2022-12-07T01:41:35;99375.00;;;3.50;100.00
41202;BME280;26936;50.524;8.684;2022-12-07T01:46:40;99373.44;;;3.52;100.00
41202;BME280;26936;50.524;8.684;2022-12-07T01:49:09;99381.78;;;3.52;100.00
41202;BME280;26936;50.524;8.684;2022-12-07T01:51:37;99381.41;;;3.47;100.00
41202;BME280;26936;50.524;8.684;2022-12-07T01:54:04;99380.97;;;3.52;100.00
41202;BME280;26936;50.524;8.684;2022-12-07T01:56:30;99384.56;;;3.49;100.00
41202;BME280;26936;50.524;8.684;2022-12-07T01:58:58;99366.63;;;3.57;100.00
41202;BME280;26936;50.524;8.684;2022-12-07T02:01:25;99356.31;;;3.50;100.00
41202;BME280;26936;50.524;8.684;2022-12-07T02:03:50;99357.97;;;3.41;100.00
41202;BME280;26936;50.524;8.684;2022-12-07T02:06:19;99355.94;;;3.48;100.00
41202;BME280;26936;50.524;8.684;2022-12-07T02:08:46;99351.19;;;3.42;100.00
41202;BME280;26936;50.524;8.684;2022-12-07T02:11:12;99351.19;;;3.45;100.00
41202;BME280;26936;50.524;8.684;2022-12-07T02:13:40;99357.56;;;3.46;100.00
41202;BME280;26936;50.524;8.684;2022-12-07T02:19:45;99353.13;;;3.52;100.00
41202;BME280;26936;50.524;8.684;2022-12-07T02:28:06;99351.56;;;3.47;100.00
41202;BME280;26936;50.524;8.684;2022-12-07T02:30:35;99344.78;;;3.52;100.00
41202;BME280;26936;50.524;8.684;2022-12-07T02:33:07;99347.16;;;3.53;100.00
41202;BME280;26936;50.524;8.684;2022-12-07T02:35:51;99343.59;;;3.49;100.00
41202;BME280;26936;50.524;8.684;2022-12-07T02:41:12;99349.22;;;3.42;100.00
41202;BME280;26936;50.524;8.684;2022-12-07T02:43:40;99349.22;;;3.42;100.00
41202;BME280;26936;50.524;8.684;2022-12-07T02:46:14;99345.22;;;3.40;100.00
41202;BME280;26936;50.524;8.684;2022-12-07T02:48:42;99336.91;;;3.36;100.00
41202;BME280;26936;50.524;8.684;2022-12-07T02:51:08;99334.09;;;3.40;100.00
41202;BME280;26936;50.524;8.684;2022-12-07T02:53:36;99336.50;;;3.38;100.00
41202;BME280;26936;50.524;8.684;2022-12-07T02:56:12;99342.44;;;3.40;100.00
41202;BME280;26936;50.524;8.684;2022-12-07T03:10:51;99329.72;;;3.46;100.00
41202;BME280;26936;50.524;8.684;2022-12-07T03:18:29;99332.84;;;3.48;100.00
41202;BME280;26936;50.524;8.684;2022-12-07T03:20:58;99329.31;;;3.47;100.00
41202;BME280;26936;50.524;8.684;2022-12-07T03:23:26;99326.88;;;3.49;100.00
41202;BME280;26936;50.524;8.684;2022-12-07T03:25:56;99334.47;;;3.49;100.00
41202;BME280;26936;50.524;8.684;2022-12-07T03:28:24;99336.44;;;3.52;100.00
41202;BME280;26936;50.524;8.684;2022-12-07T03:31:03;99328.41;;;3.57;100.00
41202;BME280;26936;50.524;8.684;2022-12-07T03:33:38;99328.09;;;3.48;100.00
41202;BME280;26936;50.524;8.684;2022-12-07T03:36:08;99328.50;;;3.47;100.00
41202;BME280;26936;50.524;8.684;2022-12-07T03:38:45;99325.75;;;3.40;100.00
41202;BME280;26936;50.524;8.684;2022-12-07T03:41:18;99327.69;;;3.46;100.00
41202;BME280;26936;50.524;8.684;2022-12-07T03:43:47;99327.75;;;3.39;100.00
41202;BME280;26936;50.524;8.684;2022-12-07T03:54:24;99311.81;;;3.40;100.00
41202;BME280;26936;50.524;8.684;2022-12-07T03:56:50;99317.00;;;3.38;100.00
41202;BME280;26936;50.524;8.684;2022-12-07T03:59:17;99317.81;;;3.38;100.00
41202;BME280;26936;50.524;8.684;2022-12-07T04:01:45;99315.03;;;3.35;100.00
41202;BME280;26936;50.524;8.684;2022-12-07T04:04:16;99315.44;;;3.37;100.00
41202;BME280;26936;50.524;8.684;2022-12-07T04:06:42;99310.25;;;3.39;100.00
41202;BME280;26936;50.524;8.684;2022-12-07T04:09:07;99310.66;;;3.37;100.00
41202;BME280;26936;50.524;8.684;2022-12-07T04:11:32;99310.28;;;3.35;100.00
41202;BME280;26936;50.524;8.684;2022-12-07T04:13:57;99312.25;;;3.31;100.00
41202;BME280;26936;50.524;8.684;2022-12-07T04:16:41;99311.09;;;3.29;100.00
41202;BME280;26936;50.524;8.684;2022-12-07T04:19:06;99315.84;;;3.32;100.00
41202;BME280;26936;50.524;8.684;2022-12-07T04:21:31;99310.28;;;3.32;100.00
41202;BME280;26936;50.524;8.684;2022-12-07T04:23:57;99313.88;;;3.32;100.00
41202;BME280;26936;50.524;8.684;2022-12-07T04:26:22;99311.44;;;3.38;100.00
41202;BME280;26936;50.524;8.684;2022-12-07T04:28:47;99305.88;;;3.38;100.00
41202;BME280;26936;50.524;8.684;2022-12-07T04:31:12;99301.88;;;3.42;100.00
41202;BME280;26936;50.524;8.684;2022-12-07T04:33:38;99304.66;;;3.42;100.00
41202;BME280;26936;50.524;8.684;2022-12-07T04:36:03;99302.22;;;3.48;100.00
41202;BME280;26936;50.524;8.684;2022-12-07T04:38:28;99303.00;;;3.52;100.00
41202;BME280;26936;50.524;8.684;2022-12-07T04:40:54;99301.81;;;3.53;100.00
41202;BME280;26936;50.524;8.684;2022-12-07T04:43:19;99303.84;;;3.49;100.00
41202;BME280;26936;50.524;8.684;2022-12-07T04:45:48;99308.59;;;3.48;100.00
41202;BME280;26936;50.524;8.684;2022-12-07T04:48:13;99305.81;;;3.52;100.00
41202;BME280;26936;50.524;8.684;2022-12-07T04:50:39;99296.66;;;3.48;100.00
41202;BME280;26936;50.524;8.684;2022-12-07T04:53:04;99309.81;;;3.47;100.00
41202;BME280;26936;50.524;8.684;2022-12-07T04:55:29;99305.44;;;3.43;100.00
41202;BME280;26936;50.524;8.684;2022-12-07T04:57:54;99311.78;;;3.50;100.00
41202;BME280;26936;50.524;8.684;2022-12-07T05:00:20;99304.19;;;3.51;100.00
41202;BME280;26936;50.524;8.684;2022-12-07T05:02:45;99307.34;;;3.56;100.00
41202;BME280;26936;50.524;8.684;2022-12-07T05:05:10;99303.44;;;3.50;100.00
41202;BME280;26936;50.524;8.684;2022-12-07T05:07:35;99305.38;;;3.53;100.00
41202;BME280;26936;50.524;8.684;2022-12-07T05:10:01;99303.78;;;3.56;100.00
41202;BME280;26936;50.524;8.684;2022-12-07T05:12:26;99294.97;;;3.64;100.00
41202;BME280;26936;50.524;8.684;2022-12-07T05:14:51;99299.00;;;3.56;100.00
41202;BME280;26936;50.524;8.684;2022-12-07T05:17:16;99299.81;;;3.53;100.00
41202;BME280;26936;50.524;8.684;2022-12-07T05:19:42;99294.25;;;3.53;100.00
41202;BME280;26936;50.524;8.684;2022-12-07T05:22:07;99296.22;;;3.53;100.00
41202;BME280;26936;50.524;8.684;2022-12-07T05:24:32;99295.06;;;3.54;100.00
41202;BME280;26936;50.524;8.684;2022-12-07T05:26:58;99294.25;;;3.53;100.00
41202;BME280;26936;50.524;8.684;2022-12-07T05:29:23;99292.22;;;3.57;100.00
41202;BME280;26936;50.524;8.684;2022-12-07T05:31:48;99300.63;;;3.54;100.00
41202;BME280;26936;50.524;8.684;2022-12-07T05:34:14;99303.00;;;3.52;100.00
41202;BME280;26936;50.524;8.684;2022-12-07T05:36:39;99298.19;;;3.56;100.00
41202;BME280;26936;50.524;8.684;2022-12-07T05:39:04;99303.00;;;3.55;100.00
41202;BME280;26936;50.524;8.684;2022-12-07T05:41:30;99290.66;;;3.56;100.00
41202;BME280;26936;50.524;8.684;2022-12-07T05:44:14;99293.78;;;3.65;100.00
41202;BME280;26936;50.524;8.684;2022-12-07T05:46:40;99291.44;;;3.60;100.00
41202;BME280;26936;50.524;8.684;2022-12-07T05:49:05;99295.78;;;3.61;100.00
41202;BME280;26936;50.524;8.684;2022-12-07T05:51:30;99298.19;;;3.59;100.00
41202;BME280;26936;50.524;8.684;2022-12-07T05:53:55;99302.13;;;3.65;100.00
41202;BME280;26936;50.524;8.684;2022-12-07T05:56:21;99300.09;;;3.69;100.00
41202;BME280;26936;50.524;8.684;2022-12-07T05:58:46;99302.53;;;3.64;100.00
41202;BME280;26936;50.524;8.684;2022-12-07T06:01:30;99310.00;;;3.74;100.00
41202;BME280;26936;50.524;8.684;2022-12-07T06:03:56;99303.69;;;3.70;100.00
41202;BME280;26936;50.524;8.684;2022-12-07T06:06:21;99292.13;;;3.75;100.00
41202;BME280;26936;50.524;8.684;2022-12-07T06:08:46;99298.13;;;3.70;100.00
41202;BME280;26936;50.524;8.684;2022-12-07T06:11:12;99297.28;;;3.73;100.00
41202;BME280;26936;50.524;8.684;2022-12-07T06:13:55;99295.22;;;3.84;100.00
41202;BME280;26936;50.524;8.684;2022-12-07T06:16:21;99291.69;;;3.80;100.00
41202;BME280;26936;50.524;8.684;2022-12-07T06:18:46;99294.06;;;3.78;100.00
41202;BME280;26936;50.524;8.684;2022-12-07T06:21:11;99295.72;;;3.72;100.00
41202;BME280;26936;50.524;8.684;2022-12-07T06:23:37;99297.63;;;3.82;100.00
41202;BME280;26936;50.524;8.684;2022-12-07T06:26:02;99295.66;;;3.79;100.00
41202;BME280;26936;50.524;8.684;2022-12-07T06:28:27;99299.28;;;3.72;100.00
41202;BME280;26936;50.524;8.684;2022-12-07T06:31:00;99309.59;;;3.75;100.00
41202;BME280;26936;50.524;8.684;2022-12-07T06:33:26;99300.06;;;3.76;100.00
41202;BME280;26936;50.524;8.684;2022-12-07T06:35:51;99296.47;;;3.76;100.00
41202;BME280;26936;50.524;8.684;2022-12-07T06:38:16;99301.66;;;3.74;100.00
41202;BME280;26936;50.524;8.684;2022-12-07T06:40:41;99307.19;;;3.81;100.00
41202;BME280;26936;50.524;8.684;2022-12-07T06:43:07;99308.00;;;3.78;100.00
41202;BME280;26936;50.524;8.684;2022-12-07T06:45:33;99312.78;;;3.77;100.00
41202;BME280;26936;50.524;8.684;2022-12-07T06:47:58;99316.38;;;3.78;100.00
41202;BME280;26936;50.524;8.684;2022-12-07T06:50:23;99315.56;;;3.77;100.00
41202;BME280;26936;50.524;8.684;2022-12-07T06:52:48;99308.44;;;3.73;100.00
41202;BME280;26936;50.524;8.684;2022-12-07T06:55:14;99310.84;;;3.71;100.00
41202;BME280;26936;50.524;8.684;2022-12-07T06:57:39;99308.81;;;3.78;100.00
41202;BME280;26936;50.524;8.684;2022-12-07T07:00:05;99317.53;;;3.77;100.00
41202;BME280;26936;50.524;8.684;2022-12-07T07:02:30;99308.03;;;3.74;100.00
41202;BME280;26936;50.524;8.684;2022-12-07T07:04:55;99316.41;;;3.71;100.00
41202;BME280;26936;50.524;8.684;2022-12-07T07:07:21;99312.81;;;3.70;100.00
41202;BME280;26936;50.524;8.684;2022-12-07T07:09:46;99310.84;;;3.71;100.00
41202;BME280;26936;50.524;8.684;2022-12-07T07:12:11;99311.66;;;3.64;100.00
41202;BME280;26936;50.524;8.684;2022-12-07T07:14:36;99311.66;;;3.68;100.00
41202;BME280;26936;50.524;8.684;2022-12-07T07:17:02;99314.47;;;3.61;100.00
41202;BME280;26936;50.524;8.684;2022-12-07T07:19:27;99311.34;;;3.59;100.00
41202;BME280;26936;50.524;8.684;2022-12-07T07:21:52;99317.75;;;3.52;100.00
41202;BME280;26936;50.524;8.684;2022-12-07T07:24:17;99318.91;;;3.51;100.00
41202;BME280;26936;50.524;8.684;2022-12-07T07:26:43;99316.94;;;3.48;100.00
41202;BME280;26936;50.524;8.684;2022-12-07T07:29:08;99327.69;;;3.50;100.00
41202;BME280;26936;50.524;8.684;2022-12-07T07:31:33;99320.91;;;3.51;100.00
41202;BME280;26936;50.524;8.684;2022-12-07T07:34:00;99319.31;;;3.53;100.00
41202;BME280;26936;50.524;8.684;2022-12-07T07:36:26;99325.28;;;3.55;100.00
41202;BME280;26936;50.524;8.684;2022-12-07T07:38:51;99328.06;;;3.55;100.00
41202;BME280;26936;50.524;8.684;2022-12-07T07:41:16;99330.00;;;3.62;100.00
41202;BME280;26936;50.524;8.684;2022-12-07T07:43:41;99316.50;;;3.60;100.00
41202;BME280;26936;50.524;8.684;2022-12-07T07:46:07;99324.06;;;3.56;100.00
41202;BME280;26936;50.524;8.684;2022-12-07T07:48:32;99325.63;;;3.57;100.00
41202;BME280;26936;50.524;8.684;2022-12-07T07:50:57;99322.47;;;3.59;100.00
41202;BME280;26936;50.524;8.684;2022-12-07T07:53:22;99325.63;;;3.57;100.00
41202;BME280;26936;50.524;8.684;2022-12-07T07:55:52;99329.56;;;3.67;100.00
41202;BME280;26936;50.524;8.684;2022-12-07T07:58:18;99328.41;;;3.61;100.00
41202;BME280;26936;50.524;8.684;2022-12-07T08:00:43;99336.75;;;3.64;100.00
41202;BME280;26936;50.524;8.684;2022-12-07T08:03:09;99337.44;;;3.75;100.00
41202;BME280;26936;50.524;8.684;2022-12-07T08:05:34;99336.25;;;3.80;100.00
41202;BME280;26936;50.524;8.684;2022-12-07T08:08:01;99330.63;;;3.83;100.00
41202;BME280;26936;50.524;8.684;2022-12-07T08:10:26;99340.53;;;3.91;100.00
41202;BME280;26936;50.524;8.684;2022-12-07T08:12:52;99339.75;;;3.87;100.00
41202;BME280;26936;50.524;8.684;2022-12-07T08:15:35;99333.81;;;3.85;100.00
41202;BME280;26936;50.524;8.684;2022-12-07T08:18:01;99329.41;;;3.91;100.00
41202;BME280;26936;50.524;8.684;2022-12-07T08:20:26;99330.94;;;3.99;100.00
41202;BME280;26936;50.524;8.684;2022-12-07T08:22:51;99331.63;;;4.10;100.00
41202;BME280;26936;50.524;8.684;2022-12-07T08:25:17;99329.78;;;4.38;100.00
41202;BME280;26936;50.524;8.684;2022-12-07T08:27:43;99331.91;;;4.64;100.00
41202;BME280;26936;50.524;8.684;2022-12-07T08:30:08;99339.25;;;5.18;100.00
41202;BME280;26936;50.524;8.684;2022-12-07T08:32:34;99335.38;;;5.69;100.00
41202;BME280;26936;50.524;8.684;2022-12-07T08:34:59;99337.94;;;6.36;100.00
41202;BME280;26936;50.524;8.684;2022-12-07T08:37:24;99329.50;;;7.02;100.00
41202;BME280;26936;50.524;8.684;2022-12-07T08:39:49;99336.75;;;7.74;97.16
41202;BME280;26936;50.524;8.684;2022-12-07T08:42:14;99333.09;;;7.93;91.54
41202;BME280;26936;50.524;8.684;2022-12-07T08:44:40;99331.78;;;8.33;90.06
41202;BME280;26936;50.524;8.684;2022-12-07T08:47:06;99327.69;;;8.82;86.36
41202;BME280;26936;50.524;8.684;2022-12-07T08:49:41;99329.66;;;9.26;83.85
41202;BME280;26936;50.524;8.684;2022-12-07T08:52:08;99329.19;;;9.82;81.52
41202;BME280;26936;50.524;8.684;2022-12-07T08:54:35;99335.03;;;10.37;77.95
41202;BME280;26936;50.524;8.684;2022-12-07T08:57:02;99326.91;;;10.86;76.19
41202;BME280;26936;50.524;8.684;2022-12-07T08:59:28;99330.53;;;11.08;72.52
41202;BME280;26936;50.524;8.684;2022-12-07T09:01:54;99325.59;;;11.34;71.33
41202;BME280;26936;50.524;8.684;2022-12-07T09:04:19;99332.78;;;11.13;71.74
41202;BME280;26936;50.524;8.684;2022-12-07T09:06:45;99329.09;;;11.04;70.60
41202;BME280;26936;50.524;8.684;2022-12-07T09:09:11;99338.44;;;10.79;73.08
41202;BME280;26936;50.524;8.684;2022-12-07T09:11:38;99337.91;;;10.71;72.36
41202;BME280;26936;50.524;8.684;2022-12-07T09:14:04;99333.94;;;11.03;71.29
41202;BME280;26936;50.524;8.684;2022-12-07T09:16:29;99331.84;;;11.16;70.71
41202;BME280;26936;50.524;8.684;2022-12-07T09:18:55;99342.34;;;10.47;71.82
41202;BME280;26936;50.524;8.684;2022-12-07T09:21:20;99335.63;;;10.32;72.82
41202;BME280;26936;50.524;8.684;2022-12-07T09:23:46;99347.97;;;10.35;73.92
41202;BME280;26936;50.524;8.684;2022-12-07T09:26:11;99353.16;;;10.49;72.39
41202;BME280;26936;50.524;8.684;2022-12-07T09:28:37;99353.84;;;10.40;73.70
41202;BME280;26936;50.524;8.684;2022-12-07T09:31:02;99368.22;;;9.80;75.87
41202;BME280;26936;50.524;8.684;2022-12-07T09:33:28;99361.50;;;8.63;81.60
41202;BME280;26936;50.524;8.684;2022-12-07T09:35:53;99357.78;;;7.46;87.72
41202;BME280;26936;50.524;8.684;2022-12-07T09:38:19;99360.25;;;7.25;90.21
41202;BME280;26936;50.524;8.684;2022-12-07T09:40:45;99361.47;;;6.61;94.35
41202;BME280;26936;50.524;8.684;2022-12-07T09:43:14;99359.84;;;6.41;97.80
41202;BME280;26936;50.524;8.684;2022-12-07T09:45:40;99359.25;;;6.03;100.00
41202;BME280;26936;50.524;8.684;2022-12-07T09:48:16;99352.28;;;5.88;100.00
41202;BME280;26936;50.524;8.684;2022-12-07T09:50:42;99351.59;;;5.81;100.00
41202;BME280;26936;50.524;8.684;2022-12-07T09:53:14;99343.81;;;5.65;100.00
41202;BME280;26936;50.524;8.684;2022-12-07T09:55:41;99340.66;;;5.63;100.00
41202;BME280;26936;50.524;8.684;2022-12-07T09:58:19;99331.38;;;7.08;98.82
41202;BME280;26936;50.524;8.684;2022-12-07T10:00:45;99334.13;;;8.35;90.07
41202;BME280;26936;50.524;8.684;2022-12-07T10:03:11;99328.78;;;9.54;82.05
41202;BME280;26936;50.524;8.684;2022-12-07T10:05:40;99328.47;;;9.52;81.42
41202;BME280;26936;50.524;8.684;2022-12-07T10:08:10;99334.28;;;9.33;81.59
41202;BME280;26936;50.524;8.684;2022-12-07T10:10:36;99331.25;;;8.83;83.11
41202;BME280;26936;50.524;8.684;2022-12-07T10:13:18;99323.34;;;8.33;86.56
41202;BME280;26936;50.524;8.684;2022-12-07T10:15:45;99327.16;;;7.91;89.22
41202;BME280;26936;50.524;8.684;2022-12-07T10:18:24;99330.41;;;7.54;90.53
41202;BME280;26936;50.524;8.684;2022-12-07T10:21:00;99322.69;;;7.03;94.17
41202;BME280;26936;50.524;8.684;2022-12-07T10:23:26;99330.56;;;6.68;95.82
41202;BME280;26936;50.524;8.684;2022-12-07T10:25:51;99327.03;;;6.41;97.58
41202;BME280;26936;50.524;8.684;2022-12-07T10:28:20;99324.84;;;6.06;99.01
41202;BME280;26936;50.524;8.684;2022-12-07T10:30:55;99323.19;;;6.09;100.00
41202;BME280;26936;50.524;8.684;2022-12-07T10:33:38;99322.00;;;6.10;99.67
41202;BME280;26936;50.524;8.684;2022-12-07T10:36:19;99309.00;;;6.23;98.66
41202;BME280;26936;50.524;8.684;2022-12-07T10:38:47;99317.88;;;6.18;99.23
41202;BME280;26936;50.524;8.684;2022-12-07T10:41:12;99309.34;;;6.02;99.76
41202;BME280;26936;50.524;8.684;2022-12-07T10:43:46;99311.34;;;6.01;100.00
41202;BME280;26936;50.524;8.684;2022-12-07T10:46:25;99307.56;;;5.88;100.00
41202;BME280;26936;50.524;8.684;2022-12-07T10:52:10;99300.16;;;7.65;92.23
41202;BME280;26936;50.524;8.684;2022-12-07T11:00:13;99297.19;;;11.07;73.06
41202;BME280;26936;50.524;8.684;2022-12-07T11:05:53;99298.03;;;10.94;70.39
41202;BME280;26936;50.524;8.684;2022-12-07T11:08:46;99288.13;;;10.68;71.85
41202;BME280;26936;50.524;8.684;2022-12-07T11:14:50;99281.81;;;10.64;71.33
41202;BME280;26936;50.524;8.684;2022-12-07T11:20:02;99265.75;;;9.02;78.52
41202;BME280;26936;50.524;8.684;2022-12-07T11:22:44;99273.00;;;8.42;82.67
41202;BME280;26936;50.524;8.684;2022-12-07T11:27:48;99266.94;;;9.01;83.52
41202;BME280;26936;50.524;8.684;2022-12-07T11:30:22;99267.19;;;9.06;81.74
41202;BME280;26936;50.524;8.684;2022-12-07T11:32:51;99263.13;;;9.86;79.89
41202;BME280;26936;50.524;8.684;2022-12-07T11:35:24;99257.72;;;9.92;74.88
41202;BME280;26936;50.524;8.684;2022-12-07T11:38:00;99255.59;;;10.55;74.14
41202;BME280;26936;50.524;8.684;2022-12-07T11:40:30;99253.69;;;10.52;72.23
41202;BME280;26936;50.524;8.684;2022-12-07T11:45:33;99251.41;;;9.25;74.83
41202;BME280;26936;50.524;8.684;2022-12-07T11:48:17;99256.22;;;8.83;77.39
41202;BME280;26936;50.524;8.684;2022-12-07T11:50:50;99257.06;;;8.23;79.81
41202;BME280;26936;50.524;8.684;2022-12-07T12:03:47;99229.53;;;7.18;83.24
41202;BME280;26936;50.524;8.684;2022-12-07T12:06:13;99239.75;;;7.09;83.25
41202;BME280;26936;50.524;8.684;2022-12-07T12:14:23;99233.03;;;7.74;80.60
41202;BME280;26936;50.524;8.684;2022-12-07T12:17:12;99232.53;;;7.79;78.64
41202;BME280;26936;50.524;8.684;2022-12-07T12:22:46;99221.00;;;7.25;81.60
41202;BME280;26936;50.524;8.684;2022-12-07T12:25:37;99227.34;;;7.10;84.02
41202;BME280;26936;50.524;8.684;2022-12-07T12:28:04;99227.25;;;7.13;84.41
41202;BME280;26936;50.524;8.684;2022-12-07T12:30:34;99227.53;;;7.19;84.56
41202;BME280;26936;50.524;8.684;2022-12-07T12:35:40;99219.50;;;7.21;83.50
41202;BME280;26936;50.524;8.684;2022-12-07T12:38:31;99220.03;;;6.96;82.33
41202;BME280;26936;50.524;8.684;2022-12-07T12:40:59;99220.91;;;6.73;82.34
41202;BME280;26936;50.524;8.684;2022-12-07T12:43:51;99219.91;;;6.64;82.40
41202;BME280;26936;50.524;8.684;2022-12-07T12:54:25;99227.66;;;6.56;82.85
41202;BME280;26936;50.524;8.684;2022-12-07T12:57:13;99226.56;;;6.31;83.66
41202;BME280;26936;50.524;8.684;2022-12-07T13:04:59;99213.38;;;6.31;82.58
41202;BME280;26936;50.524;8.684;2022-12-07T13:10:42;99204.97;;;6.31;83.23
41202;BME280;26936;50.524;8.684;2022-12-07T13:15:39;99195.66;;;6.38;83.56
41202;BME280;26936;50.524;8.684;2022-12-07T13:20:49;99208.59;;;6.28;82.94
41202;BME280;26936;50.524;8.684;2022-12-07T13:23:20;99199.16;;;6.22;83.44
41202;BME280;26936;50.524;8.684;2022-12-07T13:26:20;99202.56;;;6.10;83.94
41202;BME280;26936;50.524;8.684;2022-12-07T13:29:05;99197.22;;;6.19;83.73
41202;BME280;26936;50.524;8.684;2022-12-07T13:31:38;99196.31;;;6.03;85.01
41202;BME280;26936;50.524;8.684;2022-12-07T13:34:31;99195.19;;;6.00;85.56
41202;BME280;26936;50.524;8.684;2022-12-07T13:37:01;99206.91;;;5.92;86.71
41202;BME280;26936;50.524;8.684;2022-12-07T13:39:28;99204.47;;;5.94;86.94
41202;BME280;26936;50.524;8.684;2022-12-07T13:41:58;99200.22;;;5.86;87.48
41202;BME280;26936;50.524;8.684;2022-12-07T13:44:26;99194.63;;;5.86;88.27
41202;BME280;26936;50.524;8.684;2022-12-07T13:46:54;99190.63;;;5.87;89.37
41202;BME280;26936;50.524;8.684;2022-12-07T13:49:29;99192.94;;;5.92;88.80
41202;BME280;26936;50.524;8.684;2022-12-07T13:52:17;99193.47;;;5.83;88.84
41202;BME280;26936;50.524;8.684;2022-12-07T13:54:45;99195.53;;;5.79;88.99
41202;BME280;26936;50.524;8.684;2022-12-07T13:57:11;99191.50;;;5.80;88.31
41202;BME280;26936;50.524;8.684;2022-12-07T13:59:37;99184.41;;;5.76;88.74
41202;BME280;26936;50.524;8.684;2022-12-07T14:02:18;99183.13;;;5.80;89.25
41202;BME280;26936;50.524;8.684;2022-12-07T14:04:45;99183.13;;;5.80;89.75
41202;BME280;26936;50.524;8.684;2022-12-07T14:07:20;99183.75;;;5.65;90.70
41202;BME280;26936;50.524;8.684;2022-12-07T14:09:57;99183.72;;;5.68;91.72
41202;BME280;26936;50.524;8.684;2022-12-07T14:12:24;99185.41;;;5.62;92.51
41202;BME280;26936;50.524;8.684;2022-12-07T14:14:51;99180.19;;;5.64;92.46
41202;BME280;26936;50.524;8.684;2022-12-07T14:17:19;99177.16;;;5.55;93.54
41202;BME280;26936;50.524;8.684;2022-12-07T14:25:23;99172.22;;;5.39;95.99
41202;BME280;26936;50.524;8.684;2022-12-07T14:27:59;99174.97;;;5.43;96.02
41202;BME280;26936;50.524;8.684;2022-12-07T14:30:27;99172.53;;;5.45;96.59
41202;BME280;26936;50.524;8.684;2022-12-07T14:32:57;99174.22;;;5.39;96.95
41202;BME280;26936;50.524;8.684;2022-12-07T14:35:22;99178.72;;;5.33;97.89
41202;BME280;26936;50.524;8.684;2022-12-07T14:37:48;99167.22;;;5.27;98.91
41202;BME280;26936;50.524;8.684;2022-12-07T14:40:19;99160.13;;;5.23;98.52
41202;BME280;26936;50.524;8.684;2022-12-07T14:42:46;99162.72;;;5.10;99.71
41202;BME280;26936;50.524;8.684;2022-12-07T14:45:18;99163.44;;;5.14;99.33
41202;BME280;26936;50.524;8.684;2022-12-07T14:47:44;99156.00;;;5.04;100.00
41202;BME280;26936;50.524;8.684;2022-12-07T14:50:15;99165.66;;;5.00;100.00
41202;BME280;26936;50.524;8.684;2022-12-07T14:52:43;99163.66;;;5.00;100.00
41202;BME280;26936;50.524;8.684;2022-12-07T14:55:24;99159.44;;;4.89;100.00
41202;BME280;26936;50.524;8.684;2022-12-07T14:57:49;99159.00;;;4.90;100.00
41202;BME280;26936;50.524;8.684;2022-12-07T15:00:16;99162.22;;;4.89;100.00
41202;BME280;26936;50.524;8.684;2022-12-07T15:02:43;99162.53;;;4.94;100.00